Time;durP1;ratioP1;P1;durP2;ratioP2;P2;SDS_P1;SDS_P2;PMS_P1;PMS_P2;Temp;Humidity;BMP_temperature;BMP_pressure;BME280_temperature;BME280_humidity;BME280_pressure;Samples;Min_cycle;Max_cycle;Signal;HPM_P1;HPM_P2
2023/09/21 00:00:09;;;;;;;3.20;2.00;;;;;;;;;;5051337;28;20413;-60
2023/09/21 00:02:36;;;;;;;3.45;1.90;;;;;;;;;;5057522;28;20507;-60
2023/09/21 00:05:06;;;;;;;2.97;2.00;;;;;;;;;;5051012;28;20483;-58
2023/09/21 00:07:36;;;;;;;3.88;2.00;;;;;;;;;;5057453;28;20408;-59
2023/09/21 00:10:06;;;;;;;4.30;2.10;;;;;;;;;;5052593;28;20417;-58
2023/09/21 00:12:34;;;;;;;3.47;2.10;;;;;;;;;;5060270;28;20842;-59
2023/09/21 00:15:04;;;;;;;3.05;1.90;;;;;;;;;;5057419;28;20413;-60
2023/09/21 00:17:33;;;;;;;4.20;2.20;;;;;;;;;;5060040;28;20416;-60
2023/09/21 00:20:00;;;;;;;3.35;1.77;;;;;;;;;;5057322;28;20413;-60
2023/09/21 00:22:32;;;;;;;4.15;2.20;;;;;;;;;;5058657;28;20853;-60
2023/09/21 00:25:09;;;;;;;4.78;2.20;;;;;;;;;;5057035;28;20417;-60
2023/09/21 00:27:36;;;;;;;3.25;2.03;;;;;;;;;;5059693;28;20447;-58
2023/09/21 00:30:05;;;;;;;4.72;1.90;;;;;;;;;;5057450;28;20520;-60
2023/09/21 00:32:32;;;;;;;4.72;2.50;;;;;;;;;;5058048;28;20412;-59
2023/09/21 00:34:59;;;;;;;4.05;2.40;;;;;;;;;;5056596;28;20417;-58
2023/09/21 00:37:27;;;;;;;3.03;1.90;;;;;;;;;;5061377;28;20777;-59
2023/09/21 00:39:55;;;;;;;2.85;2.00;;;;;;;;;;5059550;28;20550;-60
2023/09/21 00:42:23;;;;;;;6.53;2.10;;;;;;;;;;5057928;28;20429;-60
2023/09/21 00:44:51;;;;;;;3.70;1.77;;;;;;;;;;5059287;28;20459;-60
2023/09/21 00:47:18;;;;;;;3.25;1.60;;;;;;;;;;5056730;28;20417;-57
2023/09/21 00:49:45;;;;;;;3.10;1.90;;;;;;;;;;5059237;28;20415;-59
2023/09/21 00:52:13;;;;;;;3.92;1.85;;;;;;;;;;5055932;28;20502;-60
2023/09/21 00:54:41;;;;;;;4.13;2.17;;;;;;;;;;5058293;28;20844;-58
2023/09/21 00:57:08;;;;;;;3.40;1.70;;;;;;;;;;5055222;28;20488;-58
2023/09/21 00:59:39;;;;;;;2.80;1.90;;;;;;;;;;5061799;28;20485;-57
2023/09/21 01:02:06;;;;;;;3.97;1.87;;;;;;;;;;5054872;28;20461;-60
2023/09/21 01:04:33;;;;;;;2.53;1.70;;;;;;;;;;5060084;28;20928;-60
2023/09/21 01:07:11;;;;;;;3.42;1.75;;;;;;;;;;5054442;28;20413;-60
2023/09/21 01:09:38;;;;;;;3.05;1.70;;;;;;;;;;5060949;28;20407;-60
2023/09/21 01:12:06;;;;;;;2.60;1.77;;;;;;;;;;5054169;28;20499;-60
2023/09/21 01:14:37;;;;;;;3.13;1.70;;;;;;;;;;5060455;28;20493;-64
2023/09/21 01:17:05;;;;;;;3.28;1.73;;;;;;;;;;5054043;28;20413;-60
2023/09/21 01:19:33;;;;;;;3.80;1.70;;;;;;;;;;5059487;28;21079;-60
2023/09/21 01:22:03;;;;;;;3.80;1.65;;;;;;;;;;5053108;28;20425;-58
2023/09/21 01:24:31;;;;;;;3.50;1.70;;;;;;;;;;5059747;28;20454;-57
2023/09/21 01:26:58;;;;;;;3.08;1.55;;;;;;;;;;5052827;28;20471;-59
2023/09/21 01:29:26;;;;;;;2.58;1.70;;;;;;;;;;5059337;28;20500;-58
2023/09/21 01:31:53;;;;;;;2.63;1.70;;;;;;;;;;5056515;28;20411;-59
2023/09/21 01:34:20;;;;;;;4.43;1.73;;;;;;;;;;5058344;28;20792;-57
2023/09/21 01:36:47;;;;;;;2.50;1.48;;;;;;;;;;5056459;28;20415;-57
2023/09/21 01:39:14;;;;;;;4.45;1.70;;;;;;;;;;5057044;28;20463;-58
2023/09/21 01:41:43;;;;;;;5.10;1.80;;;;;;;;;;5056305;28;20979;-58
2023/09/21 01:44:10;;;;;;;2.55;1.70;;;;;;;;;;5055957;28;20929;-59
2023/09/21 01:46:37;;;;;;;2.72;1.73;;;;;;;;;;5056306;28;20411;-58
2023/09/21 01:49:04;;;;;;;4.72;2.15;;;;;;;;;;5055741;28;20883;-60
2023/09/21 01:51:34;;;;;;;3.10;1.67;;;;;;;;;;5056277;28;20770;-58
2023/09/21 01:54:01;;;;;;;3.17;1.73;;;;;;;;;;5056502;28;20425;-58
2023/09/21 01:56:28;;;;;;;2.42;1.80;;;;;;;;;;5058411;28;20417;-58
2023/09/21 01:58:58;;;;;;;2.38;1.60;;;;;;;;;;5054947;28;20810;-58
2023/09/21 02:01:25;;;;;;;3.65;1.77;;;;;;;;;;5057551;28;20524;-58
2023/09/21 02:03:55;;;;;;;2.60;1.60;;;;;;;;;;5055305;28;20409;-58
2023/09/21 02:06:22;;;;;;;4.10;1.45;;;;;;;;;;5056890;28;20956;-60
2023/09/21 02:08:49;;;;;;;3.27;1.60;;;;;;;;;;5054750;28;20517;-57
2023/09/21 02:11:16;;;;;;;2.88;1.55;;;;;;;;;;5055938;28;20413;-58
2023/09/21 02:13:43;;;;;;;4.78;1.42;;;;;;;;;;5054928;28;20470;-60
2023/09/21 02:16:14;;;;;;;2.45;1.60;;;;;;;;;;5055240;28;20409;-60
2023/09/21 02:18:42;;;;;;;2.40;1.40;;;;;;;;;;5056990;28;20941;-59
2023/09/21 02:21:11;;;;;;;2.00;1.45;;;;;;;;;;5054823;28;20507;-60
2023/09/21 02:23:38;;;;;;;2.95;1.60;;;;;;;;;;5056850;28;20441;-57
2023/09/21 02:26:06;;;;;;;2.75;1.75;;;;;;;;;;5057599;28;20413;-58
2023/09/21 02:28:33;;;;;;;3.80;1.70;;;;;;;;;;5054770;28;20422;-59
2023/09/21 02:31:01;;;;;;;2.78;1.60;;;;;;;;;;5057323;28;20507;-56
2023/09/21 02:33:30;;;;;;;3.47;1.80;;;;;;;;;;5053560;28;20497;-60
2023/09/21 02:35:57;;;;;;;2.97;1.90;;;;;;;;;;5056996;28;20415;-60
2023/09/21 02:38:26;;;;;;;3.10;1.80;;;;;;;;;;5053912;28;20757;-58
2023/09/21 02:40:54;;;;;;;4.03;1.80;;;;;;;;;;5056612;28;20514;-60
2023/09/21 02:43:21;;;;;;;3.60;1.70;;;;;;;;;;5052995;28;20430;-57
2023/09/21 02:45:48;;;;;;;3.30;1.63;;;;;;;;;;5056847;28;20411;-58
2023/09/21 02:48:15;;;;;;;4.20;1.65;;;;;;;;;;5053563;28;20827;-58
2023/09/21 02:50:44;;;;;;;2.47;1.67;;;;;;;;;;5058436;28;20866;-57
2023/09/21 02:53:12;;;;;;;3.07;1.73;;;;;;;;;;5052294;28;20426;-60
2023/09/21 02:55:39;;;;;;;2.92;1.55;;;;;;;;;;5058588;28;20766;-58
2023/09/21 02:58:10;;;;;;;4.32;1.75;;;;;;;;;;5057999;28;20503;-60
2023/09/21 03:00:39;;;;;;;3.67;1.70;;;;;;;;;;5060310;28;20435;-60
2023/09/21 03:03:07;;;;;;;2.03;1.63;;;;;;;;;;5051780;28;20534;-60
2023/09/21 03:05:36;;;;;;;3.60;1.65;;;;;;;;;;5054780;28;20438;-60
2023/09/21 03:08:05;;;;;;;3.00;1.67;;;;;;;;;;5055360;28;20421;-60
2023/09/21 03:10:33;;;;;;;1.88;1.45;;;;;;;;;;5058081;28;20456;-59
2023/09/21 03:13:00;;;;;;;2.40;1.70;;;;;;;;;;5054734;28;20418;-60
2023/09/21 03:15:27;;;;;;;2.55;1.73;;;;;;;;;;5056557;28;20413;-60
2023/09/21 03:17:54;;;;;;;3.70;1.80;;;;;;;;;;5054805;28;20461;-59
2023/09/21 03:20:28;;;;;;;2.65;1.80;;;;;;;;;;5056374;28;20827;-59
2023/09/21 03:22:55;;;;;;;3.17;2.10;;;;;;;;;;5059155;28;20430;-59
2023/09/21 03:25:27;;;;;;;4.53;1.70;;;;;;;;;;5060458;28;20421;-59
2023/09/21 03:27:54;;;;;;;2.95;1.80;;;;;;;;;;5054498;28;20415;-56
2023/09/21 03:30:23;;;;;;;3.45;1.85;;;;;;;;;;5055186;28;20416;-58
2023/09/21 03:32:50;;;;;;;5.60;1.75;;;;;;;;;;5053676;28;20404;-60
2023/09/21 03:35:17;;;;;;;2.30;1.63;;;;;;;;;;5054468;28;20490;-58
2023/09/21 03:37:45;;;;;;;4.95;1.85;;;;;;;;;;5058474;28;20411;-59
2023/09/21 03:40:13;;;;;;;3.10;1.80;;;;;;;;;;5053378;28;20417;-60
2023/09/21 03:42:42;;;;;;;4.22;1.90;;;;;;;;;;5060402;28;20435;-60
2023/09/21 03:45:11;;;;;;;3.75;1.88;;;;;;;;;;5057182;28;20500;-59
2023/09/21 03:47:40;;;;;;;3.35;1.85;;;;;;;;;;5060852;28;20925;-59
2023/09/21 03:50:11;;;;;;;4.57;2.10;;;;;;;;;;5057118;28;20449;-57
2023/09/21 03:52:38;;;;;;;5.47;2.10;;;;;;;;;;5060573;28;20457;-60
2023/09/21 03:55:07;;;;;;;4.22;1.85;;;;;;;;;;5056672;28;20413;-58
2023/09/21 03:57:34;;;;;;;3.72;1.80;;;;;;;;;;5060724;28;20962;-60
2023/09/21 04:00:08;;;;;;;4.15;2.00;;;;;;;;;;5056980;28;20413;-57
2023/09/21 04:02:35;;;;;;;3.05;2.00;;;;;;;;;;5059828;28;21019;-57
2023/09/21 04:05:03;;;;;;;2.35;1.77;;;;;;;;;;5055955;28;20413;-59
2023/09/21 04:07:30;;;;;;;2.67;1.90;;;;;;;;;;5062554;28;20417;-57
2023/09/21 04:09:57;;;;;;;3.28;1.83;;;;;;;;;;5055108;28;20475;-59
2023/09/21 04:12:24;;;;;;;3.70;2.00;;;;;;;;;;5061056;28;20463;-58
2023/09/21 04:14:51;;;;;;;2.03;1.58;;;;;;;;;;5054993;28;20775;-57
2023/09/21 04:17:20;;;;;;;5.13;1.90;;;;;;;;;;5060368;28;20417;-57
2023/09/21 04:19:47;;;;;;;2.97;1.95;;;;;;;;;;5055377;28;20887;-58
2023/09/21 04:22:14;;;;;;;2.70;1.80;;;;;;;;;;5059324;28;20432;-58
2023/09/21 04:24:41;;;;;;;2.35;1.83;;;;;;;;;;5057727;28;20835;-58
2023/09/21 04:27:08;;;;;;;2.77;1.60;;;;;;;;;;5058535;28;20517;-58
2023/09/21 04:29:35;;;;;;;3.40;1.95;;;;;;;;;;5058162;28;20420;-59
2023/09/21 04:32:02;;;;;;;2.90;1.60;;;;;;;;;;5058783;28;20413;-58
2023/09/21 04:34:31;;;;;;;3.58;1.88;;;;;;;;;;5057145;28;20988;-60
2023/09/21 04:36:58;;;;;;;3.13;1.90;;;;;;;;;;5058806;28;20413;-58
2023/09/21 04:39:25;;;;;;;3.67;1.67;;;;;;;;;;5056057;28;20487;-58
2023/09/21 04:41:52;;;;;;;2.90;1.77;;;;;;;;;;5059042;28;20463;-59
2023/09/21 04:44:19;;;;;;;2.75;1.63;;;;;;;;;;5054890;28;20406;-56
2023/09/21 04:46:46;;;;;;;2.05;1.85;;;;;;;;;;5059466;28;20723;-57
2023/09/21 04:49:13;;;;;;;4.13;1.67;;;;;;;;;;5054197;28;20463;-58
2023/09/21 04:51:41;;;;;;;2.40;1.70;;;;;;;;;;5059437;28;20416;-58
2023/09/21 04:54:08;;;;;;;3.65;1.60;;;;;;;;;;5056998;28;20409;-59
2023/09/21 04:56:36;;;;;;;3.47;1.83;;;;;;;;;;5058691;28;20420;-59
2023/09/21 04:59:04;;;;;;;3.97;1.95;;;;;;;;;;5057007;28;20409;-60
2023/09/21 05:01:31;;;;;;;4.07;2.00;;;;;;;;;;5058628;28;20417;-58
2023/09/21 05:03:58;;;;;;;4.60;1.85;;;;;;;;;;5056391;28;20511;-59
2023/09/21 05:06:25;;;;;;;3.10;2.00;;;;;;;;;;5058140;28;20413;-59
2023/09/21 05:08:53;;;;;;;2.53;1.80;;;;;;;;;;5056271;28;20502;-57
2023/09/21 05:11:20;;;;;;;4.65;2.05;;;;;;;;;;5057342;28;20500;-60
2023/09/21 05:13:47;;;;;;;3.28;2.08;;;;;;;;;;5055899;28;20913;-59
2023/09/21 05:16:17;;;;;;;3.13;1.80;;;;;;;;;;5056076;28;20459;-60
2023/09/21 05:18:44;;;;;;;2.33;1.75;;;;;;;;;;5059781;28;20419;-59
2023/09/21 05:21:11;;;;;;;3.10;1.92;;;;;;;;;;5055787;28;20787;-60
2023/09/21 05:23:42;;;;;;;2.80;1.80;;;;;;;;;;5059217;28;20432;-60
2023/09/21 05:26:10;;;;;;;2.55;1.77;;;;;;;;;;5055629;28;20448;-60
2023/09/21 05:28:37;;;;;;;3.67;1.90;;;;;;;;;;5058810;28;20419;-58
2023/09/21 05:31:04;;;;;;;4.28;1.83;;;;;;;;;;5055058;28;20410;-56
2023/09/21 05:33:31;;;;;;;2.40;1.70;;;;;;;;;;5057791;28;20908;-58
2023/09/21 05:36:04;;;;;;;3.97;1.80;;;;;;;;;;5054767;28;20420;-60
2023/09/21 05:38:32;;;;;;;3.50;2.00;;;;;;;;;;5057931;28;20426;-58
2023/09/21 05:40:59;;;;;;;5.22;2.03;;;;;;;;;;5054158;28;20836;-57
2023/09/21 05:43:29;;;;;;;3.78;2.20;;;;;;;;;;5056562;28;20433;-60
2023/09/21 05:45:56;;;;;;;3.17;2.10;;;;;;;;;;5054036;28;20413;-58
2023/09/21 05:48:23;;;;;;;5.35;1.95;;;;;;;;;;5058883;28;20883;-60
2023/09/21 05:50:51;;;;;;;4.22;1.92;;;;;;;;;;5054535;28;20531;-59
2023/09/21 05:53:19;;;;;;;3.08;1.83;;;;;;;;;;5058097;28;20415;-59
2023/09/21 05:55:46;;;;;;;3.23;2.00;;;;;;;;;;5054220;28;20409;-58
2023/09/21 05:58:13;;;;;;;3.90;2.08;;;;;;;;;;5057605;28;20416;-58
2023/09/21 06:00:42;;;;;;;4.15;1.92;;;;;;;;;;5054426;28;20417;-58
2023/09/21 06:03:09;;;;;;;4.03;2.13;;;;;;;;;;5057080;28;20912;-61
2023/09/21 06:05:36;;;;;;;3.20;2.00;;;;;;;;;;5054154;28;20405;-60
2023/09/21 06:08:03;;;;;;;2.97;1.90;;;;;;;;;;5057379;28;20421;-60
2023/09/21 06:10:30;;;;;;;2.42;1.70;;;;;;;;;;5055604;28;20432;-58
2023/09/21 06:12:57;;;;;;;4.43;2.13;;;;;;;;;;5057737;28;20409;-58
2023/09/21 06:15:24;;;;;;;4.57;2.08;;;;;;;;;;5053919;28;20413;-59
2023/09/21 06:17:53;;;;;;;3.50;2.17;;;;;;;;;;5058594;28;20445;-59
2023/09/21 06:20:20;;;;;;;3.33;2.17;;;;;;;;;;5053592;28;20491;-61
2023/09/21 06:22:47;;;;;;;4.38;2.08;;;;;;;;;;5058962;28;20953;-59
2023/09/21 06:25:14;;;;;;;3.10;2.00;;;;;;;;;;5052819;28;20471;-61
2023/09/21 06:27:41;;;;;;;2.88;2.00;;;;;;;;;;5059125;28;20412;-59
2023/09/21 06:30:10;;;;;;;6.50;2.25;;;;;;;;;;5052497;28;20500;-60
2023/09/21 06:32:37;;;;;;;5.47;2.00;;;;;;;;;;5059181;28;20421;-60
2023/09/21 06:35:08;;;;;;;4.28;2.08;;;;;;;;;;5051708;28;20416;-61
2023/09/21 06:37:35;;;;;;;3.22;2.08;;;;;;;;;;5058199;28;20413;-60
2023/09/21 06:40:06;;;;;;;2.90;1.92;;;;;;;;;;5055158;28;20419;-59
2023/09/21 06:42:33;;;;;;;3.20;2.10;;;;;;;;;;5058875;28;20409;-61
2023/09/21 06:45:00;;;;;;;4.03;2.03;;;;;;;;;;5059642;28;20964;-61
2023/09/21 06:47:28;;;;;;;3.63;2.00;;;;;;;;;;5057047;28;20413;-61
2023/09/21 06:49:55;;;;;;;3.58;2.00;;;;;;;;;;5058912;28;20886;-61
2023/09/21 06:52:24;;;;;;;4.33;2.30;;;;;;;;;;5055932;28;20414;-61
2023/09/21 06:54:52;;;;;;;3.60;1.90;;;;;;;;;;5057829;28;20415;-58
2023/09/21 06:57:23;;;;;;;3.83;2.00;;;;;;;;;;5054359;28;20471;-61
2023/09/21 06:59:52;;;;;;;3.67;2.00;;;;;;;;;;5057585;28;20411;-60
2023/09/21 07:02:19;;;;;;;3.47;2.00;;;;;;;;;;5054081;28;20410;-58
2023/09/21 07:04:46;;;;;;;3.67;2.03;;;;;;;;;;5060522;28;20434;-60
2023/09/21 07:07:15;;;;;;;3.25;1.90;;;;;;;;;;5053561;28;20409;-59
2023/09/21 07:09:44;;;;;;;3.50;1.90;;;;;;;;;;5056969;28;20411;-58
2023/09/21 07:12:12;;;;;;;27.38;6.20;;;;;;;;;;5053409;28;20425;-59
2023/09/21 07:14:39;;;;;;;18.13;8.40;;;;;;;;;;5056966;28;20402;-59
2023/09/21 07:17:06;;;;;;;3.40;2.00;;;;;;;;;;5052897;28;20414;-59
2023/09/21 07:19:34;;;;;;;4.70;2.38;;;;;;;;;;5055422;28;20417;-58
2023/09/21 07:22:01;;;;;;;15.40;5.50;;;;;;;;;;5052564;28;20942;-58
2023/09/21 07:24:29;;;;;;;21.98;7.30;;;;;;;;;;5054942;28;20486;-61
2023/09/21 07:26:57;;;;;;;44.08;11.60;;;;;;;;;;5052869;28;20444;-59
2023/09/21 07:29:26;;;;;;;14.43;6.18;;;;;;;;;;5057225;28;20455;-61
2023/09/21 07:31:53;;;;;;;22.80;9.38;;;;;;;;;;5053040;28;20448;-60
2023/09/21 07:34:20;;;;;;;6.53;2.92;;;;;;;;;;5056394;28;20826;-59
2023/09/21 07:36:47;;;;;;;5.85;2.63;;;;;;;;;;5055329;28;20757;-59
2023/09/21 07:39:14;;;;;;;5.80;2.53;;;;;;;;;;5056293;28;20409;-59
2023/09/21 07:41:41;;;;;;;4.72;2.40;;;;;;;;;;5052960;28;20890;-58
2023/09/21 07:44:10;;;;;;;3.15;2.15;;;;;;;;;;5055761;28;20512;-59
2023/09/21 07:46:37;;;;;;;29.23;6.90;;;;;;;;;;5052574;28;20413;-58
2023/09/21 07:49:04;;;;;;;4.35;2.15;;;;;;;;;;5055928;28;20500;-59
2023/09/21 07:51:32;;;;;;;2.92;2.00;;;;;;;;;;5053828;28;20411;-59
2023/09/21 07:54:00;;;;;;;4.78;2.17;;;;;;;;;;5056841;28;20410;-59
2023/09/21 07:56:27;;;;;;;4.07;2.17;;;;;;;;;;5047783;28;20457;-61
2023/09/21 07:58:54;;;;;;;5.78;2.13;;;;;;;;;;5053812;28;20789;-58
2023/09/21 08:01:23;;;;;;;3.20;2.03;;;;;;;;;;5053704;28;20482;-63
2023/09/21 08:03:50;;;;;;;5.60;2.00;;;;;;;;;;5056854;28;20427;-63
2023/09/21 08:06:19;;;;;;;3.70;1.98;;;;;;;;;;5050993;28;20414;-64
2023/09/21 08:08:47;;;;;;;3.30;1.98;;;;;;;;;;5057159;28;20414;-63
2023/09/21 08:11:15;;;;;;;5.60;2.10;;;;;;;;;;5051280;28;20424;-64
2023/09/21 08:13:42;;;;;;;3.42;2.17;;;;;;;;;;5056080;28;20415;-65
2023/09/21 08:16:09;;;;;;;4.90;2.15;;;;;;;;;;5051902;28;20910;-65
2023/09/21 08:18:37;;;;;;;3.63;2.10;;;;;;;;;;5054631;28;20425;-64
2023/09/21 08:21:04;;;;;;;4.95;2.10;;;;;;;;;;5053389;28;20413;-64
2023/09/21 08:23:32;;;;;;;4.28;2.20;;;;;;;;;;5050934;28;20948;-64
2023/09/21 08:25:59;;;;;;;4.87;2.17;;;;;;;;;;5052983;28;20420;-64
2023/09/21 08:28:26;;;;;;;3.47;2.63;;;;;;;;;;5051683;28;20840;-63
2023/09/21 08:30:55;;;;;;;4.13;3.08;;;;;;;;;;5051576;28;20443;-65
2023/09/21 08:33:22;;;;;;;4.93;2.22;;;;;;;;;;5055922;28;20500;-65
2023/09/21 08:35:50;;;;;;;4.35;2.00;;;;;;;;;;5056885;28;20405;-65
2023/09/21 08:38:17;;;;;;;4.03;1.92;;;;;;;;;;5055447;28;20966;-65
2023/09/21 08:40:46;;;;;;;3.60;2.20;;;;;;;;;;5057465;28;20489;-64
2023/09/21 08:43:19;;;;;;;3.08;1.88;;;;;;;;;;5055080;28;20463;-63
2023/09/21 08:45:46;;;;;;;3.55;2.00;;;;;;;;;;5053077;28;20487;-64
2023/09/21 08:48:17;;;;;;;6.10;2.10;;;;;;;;;;5049901;28;20414;-65
2023/09/21 08:50:44;;;;;;;2.97;1.85;;;;;;;;;;5056986;28;20408;-64
2023/09/21 08:53:15;;;;;;;3.10;1.70;;;;;;;;;;5052826;28;20452;-64
2023/09/21 08:55:43;;;;;;;4.15;2.10;;;;;;;;;;5055729;28;20420;-65
2023/09/21 08:58:12;;;;;;;5.07;1.90;;;;;;;;;;5052630;28;20425;-64
2023/09/21 09:00:40;;;;;;;4.40;2.20;;;;;;;;;;5055718;28;20413;-63
2023/09/21 09:03:07;;;;;;;2.97;1.77;;;;;;;;;;5055788;28;20424;-64
2023/09/21 09:05:36;;;;;;;3.40;2.00;;;;;;;;;;5054148;28;20479;-63
2023/09/21 09:08:03;;;;;;;4.35;2.08;;;;;;;;;;5049966;28;20529;-64
2023/09/21 09:10:32;;;;;;;3.58;2.17;;;;;;;;;;5056548;28;20959;-63
2023/09/21 09:13:05;;;;;;;4.82;1.95;;;;;;;;;;5054712;28;20417;-64
2023/09/21 09:15:34;;;;;;;4.65;2.10;;;;;;;;;;5051585;28;20467;-64
2023/09/21 09:18:03;;;;;;;3.47;1.83;;;;;;;;;;5051069;28;20413;-64
2023/09/21 09:20:30;;;;;;;4.28;1.83;;;;;;;;;;5056631;28;20448;-64
2023/09/21 09:22:58;;;;;;;4.32;1.90;;;;;;;;;;5057693;28;20429;-63
2023/09/21 09:25:26;;;;;;;3.53;1.97;;;;;;;;;;5051230;28;20842;-63
2023/09/21 09:27:54;;;;;;;3.95;1.88;;;;;;;;;;5051788;28;20417;-63
2023/09/21 09:30:24;;;;;;;4.10;1.92;;;;;;;;;;5050035;28;20412;-63
2023/09/21 09:32:54;;;;;;;5.57;2.47;;;;;;;;;;5053338;28;20456;-61
2023/09/21 09:35:21;;;;;;;13.13;2.47;;;;;;;;;;5054416;28;20409;-61
2023/09/21 09:37:49;;;;;;;4.57;2.00;;;;;;;;;;5056887;28;21156;-62
2023/09/21 09:40:23;;;;;;;7.85;1.95;;;;;;;;;;5053849;28;20409;-62
2023/09/21 09:42:51;;;;;;;4.20;1.77;;;;;;;;;;5058973;28;20469;-62
2023/09/21 09:45:25;;;;;;;3.30;2.10;;;;;;;;;;5052804;28;20795;-62
2023/09/21 09:47:55;;;;;;;2.58;1.90;;;;;;;;;;5056269;28;20430;-62
2023/09/21 09:50:24;;;;;;;2.90;1.80;;;;;;;;;;5053079;28;20511;-61
2023/09/21 09:52:52;;;;;;;4.38;1.83;;;;;;;;;;5056234;28;20408;-61
2023/09/21 09:55:22;;;;;;;5.25;1.90;;;;;;;;;;5051923;28;20413;-61
2023/09/21 09:57:53;;;;;;;4.35;1.83;;;;;;;;;;5055364;28;20465;-61
2023/09/21 10:00:22;;;;;;;3.78;1.95;;;;;;;;;;5051943;28;20413;-61
2023/09/21 10:02:50;;;;;;;2.90;1.63;;;;;;;;;;5056748;28;20427;-60
2023/09/21 10:05:20;;;;;;;3.08;1.88;;;;;;;;;;5053545;28;20433;-61
2023/09/21 10:07:48;;;;;;;3.55;2.00;;;;;;;;;;5057306;28;20490;-60
2023/09/21 10:10:19;;;;;;;3.00;2.00;;;;;;;;;;5053722;28;20413;-60
2023/09/21 10:12:49;;;;;;;4.88;2.05;;;;;;;;;;5057106;28;20786;-62
2023/09/21 10:15:17;;;;;;;6.60;2.10;;;;;;;;;;5052374;28;20915;-60
2023/09/21 10:17:50;;;;;;;5.53;2.00;;;;;;;;;;5057002;28;20417;-61
2023/09/21 10:20:24;;;;;;;3.10;1.80;;;;;;;;;;5053349;28;20424;-60
2023/09/21 10:22:52;;;;;;;5.15;1.92;;;;;;;;;;5062448;28;20502;-60
2023/09/21 10:25:21;;;;;;;6.05;2.25;;;;;;;;;;5052311;28;20839;-55
2023/09/21 10:27:50;;;;;;;4.63;2.10;;;;;;;;;;5058805;28;20465;-62
2023/09/21 10:30:18;;;;;;;2.83;2.00;;;;;;;;;;5052329;28;20560;-63
2023/09/21 10:32:48;;;;;;;3.30;1.95;;;;;;;;;;5058595;28;20424;-62
2023/09/21 10:35:21;;;;;;;3.13;1.80;;;;;;;;;;5052162;28;20520;-63
2023/09/21 10:37:51;;;;;;;3.05;1.90;;;;;;;;;;5057716;28;20408;-60
2023/09/21 10:40:20;;;;;;;2.78;1.90;;;;;;;;;;5052376;28;20547;-61
2023/09/21 10:42:47;;;;;;;3.10;1.83;;;;;;;;;;5058283;28;20419;-61
2023/09/21 10:45:14;;;;;;;3.97;1.80;;;;;;;;;;5050455;28;20425;-61
2023/09/21 10:47:42;;;;;;;5.47;2.20;;;;;;;;;;5057124;28;20487;-61
2023/09/21 10:50:11;;;;;;;4.38;1.98;;;;;;;;;;5054402;28;20825;-61
2023/09/21 10:52:40;;;;;;;4.60;2.10;;;;;;;;;;5059200;28;20417;-57
2023/09/21 10:55:08;;;;;;;3.25;2.05;;;;;;;;;;5053973;28;20439;-60
2023/09/21 10:57:35;;;;;;;2.80;1.80;;;;;;;;;;5056149;28;20471;-62
2023/09/21 11:00:07;;;;;;;4.05;2.10;;;;;;;;;;5057516;28;20408;-62
2023/09/21 11:02:35;;;;;;;3.78;1.90;;;;;;;;;;5054443;28;20467;-62
2023/09/21 11:05:02;;;;;;;2.72;1.90;;;;;;;;;;5056268;28;20936;-62
2023/09/21 11:07:31;;;;;;;3.28;2.08;;;;;;;;;;5053711;28;20880;-63
2023/09/21 11:09:58;;;;;;;4.23;2.23;;;;;;;;;;5053304;28;20897;-61
2023/09/21 11:12:27;;;;;;;2.43;1.77;;;;;;;;;;5052774;28;21288;-62
2023/09/21 11:14:54;;;;;;;3.22;2.00;;;;;;;;;;5056352;28;20808;-62
2023/09/21 11:17:21;;;;;;;3.25;1.80;;;;;;;;;;5052739;28;20479;-64
2023/09/21 11:19:48;;;;;;;3.70;1.88;;;;;;;;;;5056538;28;20768;-62
2023/09/21 11:22:15;;;;;;;3.42;2.05;;;;;;;;;;5051953;28;20900;-63
2023/09/21 11:24:45;;;;;;;3.67;2.00;;;;;;;;;;5054747;28;20425;-63
2023/09/21 11:27:14;;;;;;;2.80;2.10;;;;;;;;;;5053953;28;20413;-63
2023/09/21 11:29:42;;;;;;;4.20;2.20;;;;;;;;;;5054966;28;20420;-64
2023/09/21 11:32:10;;;;;;;5.45;2.20;;;;;;;;;;5052509;28;20413;-63
2023/09/21 11:34:39;;;;;;;2.78;2.10;;;;;;;;;;5054223;28;20492;-64
2023/09/21 11:37:07;;;;;;;5.25;2.00;;;;;;;;;;5053123;28;20414;-63
2023/09/21 11:39:34;;;;;;;3.58;2.10;;;;;;;;;;5054317;28;20463;-63
2023/09/21 11:42:03;;;;;;;2.58;2.00;;;;;;;;;;5056831;28;20799;-63
2023/09/21 11:44:30;;;;;;;6.68;1.80;;;;;;;;;;5055726;28;20426;-63
2023/09/21 11:46:58;;;;;;;5.28;2.20;;;;;;;;;;5052993;28;20768;-64
2023/09/21 11:49:35;;;;;;;3.88;1.90;;;;;;;;;;5055940;28;20444;-63
2023/09/21 11:52:03;;;;;;;4.18;2.03;;;;;;;;;;5055006;28;20401;-63
2023/09/21 11:54:30;;;;;;;2.67;2.00;;;;;;;;;;5055484;28;20504;-63
2023/09/21 11:56:57;;;;;;;3.35;1.90;;;;;;;;;;5051817;28;20413;-63
2023/09/21 11:59:26;;;;;;;2.85;1.83;;;;;;;;;;5055130;28;21272;-64
2023/09/21 12:01:55;;;;;;;3.28;2.05;;;;;;;;;;5052015;28;20901;-63
2023/09/21 12:04:23;;;;;;;3.08;1.90;;;;;;;;;;5055575;28;20409;-63
2023/09/21 12:06:51;;;;;;;3.22;2.00;;;;;;;;;;5058028;28;20521;-63
2023/09/21 12:09:18;;;;;;;2.90;2.10;;;;;;;;;;5058770;28;21189;-63
2023/09/21 12:11:48;;;;;;;4.10;1.98;;;;;;;;;;5057243;28;20486;-63
2023/09/21 12:14:15;;;;;;;3.60;2.00;;;;;;;;;;5057962;28;20413;-62
2023/09/21 12:16:45;;;;;;;4.05;2.30;;;;;;;;;;5053538;28;20413;-63
2023/09/21 12:19:12;;;;;;;3.72;2.28;;;;;;;;;;5059335;28;20507;-62
2023/09/21 12:21:40;;;;;;;5.25;1.90;;;;;;;;;;5055292;28;20437;-62
2023/09/21 12:24:07;;;;;;;3.63;2.25;;;;;;;;;;5057122;28;20425;-61
2023/09/21 12:26:36;;;;;;;5.70;2.30;;;;;;;;;;5056323;28;20451;-62
2023/09/21 12:29:03;;;;;;;3.85;2.05;;;;;;;;;;5052824;28;20421;-62
2023/09/21 12:31:31;;;;;;;4.50;2.20;;;;;;;;;;5053808;28;20421;-60
2023/09/21 12:33:59;;;;;;;4.00;2.00;;;;;;;;;;5052321;28;20417;-62
2023/09/21 12:36:26;;;;;;;5.37;2.23;;;;;;;;;;5055739;28;20410;-62
2023/09/21 12:38:54;;;;;;;6.10;2.40;;;;;;;;;;5053422;28;20412;-59
2023/09/21 12:41:21;;;;;;;3.35;1.77;;;;;;;;;;5056591;28;20918;-62
2023/09/21 12:43:48;;;;;;;4.03;2.10;;;;;;;;;;5057802;28;20459;-61
2023/09/21 12:46:14;;;;;;;3.95;2.15;;;;;;;;;;5056046;28;20429;-61
2023/09/21 12:48:41;;;;;;;4.85;2.22;;;;;;;;;;5053312;28;20437;-61
2023/09/21 12:51:10;;;;;;;3.53;2.10;;;;;;;;;;5055042;28;20417;-60
2023/09/21 12:53:37;;;;;;;5.07;2.20;;;;;;;;;;5052976;28;20413;-65
2023/09/21 12:56:06;;;;;;;5.18;2.40;;;;;;;;;;5055022;28;20408;-59
2023/09/21 12:58:34;;;;;;;4.90;2.47;;;;;;;;;;5055437;28;20491;-60
2023/09/21 13:01:01;;;;;;;4.83;2.13;;;;;;;;;;5062978;28;20519;-63
2023/09/21 13:03:28;;;;;;;6.05;2.30;;;;;;;;;;5054571;28;20413;-61
2023/09/21 13:05:55;;;;;;;3.85;2.45;;;;;;;;;;5057723;28;20436;-60
2023/09/21 13:08:23;;;;;;;5.93;2.20;;;;;;;;;;5055349;28;20509;-61
2023/09/21 13:10:50;;;;;;;4.28;2.25;;;;;;;;;;5058580;28;20569;-61
2023/09/21 13:13:17;;;;;;;3.97;2.42;;;;;;;;;;5058787;28;20421;-60
2023/09/21 13:15:44;;;;;;;6.40;2.22;;;;;;;;;;5057804;28;21275;-61
2023/09/21 13:18:13;;;;;;;3.88;2.33;;;;;;;;;;5059634;28;20502;-60
2023/09/21 13:20:42;;;;;;;3.85;2.35;;;;;;;;;;5052237;28;20487;-60
2023/09/21 13:23:09;;;;;;;5.17;2.20;;;;;;;;;;5054354;28;20421;-59
2023/09/21 13:25:37;;;;;;;3.58;2.33;;;;;;;;;;5063520;28;20429;-59
2023/09/21 13:28:04;;;;;;;5.25;2.30;;;;;;;;;;5054779;28;20417;-59
2023/09/21 13:30:32;;;;;;;4.40;2.42;;;;;;;;;;5058292;28;20467;-59
2023/09/21 13:32:59;;;;;;;3.30;2.15;;;;;;;;;;5055522;28;20423;-59
2023/09/21 13:35:26;;;;;;;3.65;2.22;;;;;;;;;;5058370;28;20405;-59
2023/09/21 13:37:53;;;;;;;3.35;2.20;;;;;;;;;;5058409;28;20846;-59
2023/09/21 13:40:22;;;;;;;4.23;2.33;;;;;;;;;;5059486;28;20495;-59
2023/09/21 13:42:50;;;;;;;3.90;2.40;;;;;;;;;;5055485;28;20463;-58
2023/09/21 13:45:17;;;;;;;4.47;2.30;;;;;;;;;;5058715;28;20425;-59
2023/09/21 13:47:44;;;;;;;4.60;2.22;;;;;;;;;;5057045;28;20992;-59
2023/09/21 13:50:12;;;;;;;3.65;2.20;;;;;;;;;;5059515;28;20410;-60
2023/09/21 13:52:39;;;;;;;4.68;2.47;;;;;;;;;;5059003;28;20508;-59
2023/09/21 13:55:06;;;;;;;3.53;2.37;;;;;;;;;;5059454;28;20504;-60
2023/09/21 13:57:33;;;;;;;3.78;2.20;;;;;;;;;;5054242;28;20417;-59
2023/09/21 14:00:02;;;;;;;4.00;2.38;;;;;;;;;;5059623;28;20419;-59
2023/09/21 14:02:29;;;;;;;3.58;2.45;;;;;;;;;;5053874;28;20424;-59
2023/09/21 14:04:58;;;;;;;7.47;2.65;;;;;;;;;;5059525;28;20844;-60
2023/09/21 14:07:25;;;;;;;3.95;2.40;;;;;;;;;;5053521;28;20418;-59
2023/09/21 14:09:52;;;;;;;4.20;2.40;;;;;;;;;;5059058;28;20524;-58
2023/09/21 14:12:19;;;;;;;3.40;2.38;;;;;;;;;;5052971;28;20417;-59
2023/09/21 14:14:47;;;;;;;4.43;2.40;;;;;;;;;;5062801;28;20424;-59
2023/09/21 14:17:15;;;;;;;5.22;2.20;;;;;;;;;;5055811;28;21158;-60
2023/09/21 14:19:42;;;;;;;4.88;2.45;;;;;;;;;;5062098;28;20433;-59
2023/09/21 14:22:09;;;;;;;5.47;2.60;;;;;;;;;;5055520;28;20407;-59
2023/09/21 14:24:36;;;;;;;5.13;2.60;;;;;;;;;;5056473;28;20413;-59
2023/09/21 14:27:03;;;;;;;4.47;2.60;;;;;;;;;;5059621;28;20485;-60
2023/09/21 14:29:30;;;;;;;3.97;2.42;;;;;;;;;;5054941;28;20413;-60
2023/09/21 14:31:57;;;;;;;4.67;2.40;;;;;;;;;;5055835;28;20446;-60
2023/09/21 14:34:28;;;;;;;2.92;2.15;;;;;;;;;;5055378;28;20413;-60
2023/09/21 14:36:55;;;;;;;6.00;2.40;;;;;;;;;;5055779;28;20445;-60
2023/09/21 14:39:22;;;;;;;3.75;2.30;;;;;;;;;;5056010;28;20811;-60
2023/09/21 14:41:49;;;;;;;4.10;2.33;;;;;;;;;;5052564;28;20417;-60
2023/09/21 14:44:16;;;;;;;4.88;2.50;;;;;;;;;;5050393;28;20409;-61
2023/09/21 14:46:43;;;;;;;3.95;2.13;;;;;;;;;;5056255;28;20432;-61